Anemona — 3EUT9 — position and weather

sailwx.info

Track history (hours):
 
Tides and Currents Weather Stations Pressure Air Temp Water Temp Dewpoint Dewpoint Depression Visibility Wind Speed Wind Dir Waves Ship Positions

Anemona

Last reported at 2016-Jun-06 03:33 UTC. Time now 2016-Jun-28 20:40 UTC.
Position S 26°54' E 153°52'.
Warning: this ship's position is 22 days out of date.

Length 192 m; draft 11.3 m.

Type: Cargo ship. MMSI: 355664000.

Date/timePositionNaut miles runAvg speedWind from/ knotsBaromVisibWave heightAir tempDewpointWater temp
2016-Jun-06 03:33S 26°54' E 153°52'1010.1
2016-Jun-06 02:33S 27°04' E 153°52'10 9.7
2016-Jun-06 01:33S 27°14' E 153°51'20 9.2
2016-Jun-05 23:22S 27°34' E 153°50'7 9.0
2016-Jun-05 22:33S 27°41' E 153°50'1010.3
2016-Jun-05 21:33S 27°52' E 153°49'1211.4
2016-Jun-05 20:31S 28°03' E 153°48'251 6.6
2016-Jun-04 06:27S 32°08' E 152°45'18 5.5
2016-Jun-04 03:07S 32°26' E 152°39'3 5.7
2016-Jun-04 02:33S 32°29' E 152°38'7 6.8
2016-Jun-04 01:33S 32°35' E 152°34'6 6.3
2016-Jun-04 00:33S 32°41' E 152°32'7 7.0
2016-Jun-03 23:34S 32°47' E 152°28'8 8.4
2016-Jun-03 22:33S 32°55' E 152°25'9 9.1
2016-Jun-03 21:33S 33°04' E 152°20'9 9.1
2016-Jun-03 20:33S 33°12' E 152°16'18710.7
2016-Jun-03 03:04S 36°05' E 150°50'712.6
2016-Jun-03 02:33S 36°11' E 150°46'1212.6
2016-Jun-03 01:33S 36°23' E 150°41'1312.6
2016-Jun-03 00:33S 36°34' E 150°35'1312.9
2016-Jun-02 23:33S 36°46' E 150°28'1312.7
2016-Jun-02 22:33S 36°58' E 150°23'1313.4
2016-Jun-02 21:33S 37°10' E 150°16'1313.1
2016-Jun-02 20:33S 37°22' E 150°10'1313.0
2016-Jun-02 19:33S 37°34' E 150°02'1313.2
2016-Jun-02 18:33S 37°44' E 149°51'1313.0
2016-Jun-02 17:33S 37°53' E 149°40'1312.8
2016-Jun-02 16:33S 38°03' E 149°30'1313.0
2016-Jun-02 15:33S 38°13' E 149°18'1413.0
2016-Jun-02 14:31S 38°23' E 149°07'7612.7
2016-Jun-02 08:31S 39°20' E 148°02'2311.9
2016-Jun-02 06:33S 39°37' E 147°42'7812.9
2016-Jun-02 00:33S 40°45' E 146°53'1413.0
2016-Jun-01 23:27S 40°58' E 146°45'  
2016-May-30 03:29S 41°08' E 146°51'0 0.0
2016-May-30 02:29S 41°08' E 146°51'0 0.0
2016-May-30 00:25S 41°08' E 146°51'0 0.0
2016-May-29 23:28S 41°08' E 146°51'0 0.0
2016-May-29 22:28S 41°08' E 146°51'0 0.0
2016-May-29 21:32S 41°08' E 146°51'0 0.0
2016-May-29 20:31S 41°08' E 146°51'1 0.5
2016-May-29 19:33S 41°09' E 146°51'1110.5
2016-May-29 18:33S 40°60' E 146°44'7 7.2
2016-May-29 17:33S 40°54' E 146°38'1 1.5
2016-May-29 16:33S 40°54' E 146°39'1 1.3
2016-May-29 15:27S 40°54' E 146°41'1 1.2
2016-May-29 14:33S 40°54' E 146°42'1 0.8
2016-May-29 13:33S 40°54' E 146°43'1 0.9
2016-May-29 12:33S 40°54' E 146°45'8 7.5
2016-May-29 11:33S 40°48' E 146°50'1010.0
2016-May-29 10:33S 40°39' E 146°57'7111.3
2016-May-29 04:15S 39°37' E 147°42'10710.0
2016-May-28 17:33S 38°17' E 149°14'8 8.4
2016-May-28 16:33S 38°11' E 149°21'9 8.7
2016-May-28 15:33S 38°05' E 149°28'9 8.6
2016-May-28 14:34S 37°58' E 149°35'9 8.7
2016-May-28 13:34S 37°52' E 149°42'9 9.3
2016-May-28 12:34S 37°45' E 149°50'10 9.7
2016-May-28 11:33S 37°37' E 149°58'9 9.4
2016-May-28 10:33S 37°30' E 150°06'1010.0
2016-May-28 09:33S 37°20' E 150°08'10 9.7
2016-May-28 08:33S 37°11' E 150°10'9 9.4
2016-May-28 07:33S 37°01' E 150°13'10 9.8
2016-May-28 06:33S 36°52' E 150°15'1010.0
2016-May-28 05:33S 36°42' E 150°17'1010.2
2016-May-28 04:33S 36°32' E 150°20'1010.1
2016-May-28 03:33S 36°22' E 150°22'9 9.4
2016-May-28 02:33S 36°13' E 150°25'202 9.6
2016-May-27 05:26S 33°06' E 151°56'9 9.8
2016-May-27 04:33S 32°60' E 152°03'1110.8
2016-May-27 03:33S 32°52' E 152°12'  
Track history (hours):
 
Tides and Currents Weather Stations Pressure Air Temp Water Temp Dewpoint Dewpoint Depression Visibility Wind Speed Wind Dir Waves Ship Positions

Anemona

Last reported at 2016-Jun-06 03:33 UTC. Time now 2016-Jun-28 20:40 UTC.
Position S 26°54' E 153°52'.
Warning: this ship's position is 22 days out of date.

Length 192 m; draft 11.3 m.

Type: Cargo ship. MMSI: 355664000.

Date/timePositionNaut miles runAvg speedWind from/ knotsBaromVisibWave heightAir tempDewpointWater temp
2016-Jun-06 03:33S 26°54' E 153°52'1010.1
2016-Jun-06 02:33S 27°04' E 153°52'10 9.7
2016-Jun-06 01:33S 27°14' E 153°51'20 9.2
2016-Jun-05 23:22S 27°34' E 153°50'7 9.0
2016-Jun-05 22:33S 27°41' E 153°50'1010.3
2016-Jun-05 21:33S 27°52' E 153°49'1211.4
2016-Jun-05 20:31S 28°03' E 153°48'251 6.6
2016-Jun-04 06:27S 32°08' E 152°45'18 5.5
2016-Jun-04 03:07S 32°26' E 152°39'3 5.7
2016-Jun-04 02:33S 32°29' E 152°38'7 6.8
2016-Jun-04 01:33S 32°35' E 152°34'6 6.3
2016-Jun-04 00:33S 32°41' E 152°32'7 7.0
2016-Jun-03 23:34S 32°47' E 152°28'8 8.4
2016-Jun-03 22:33S 32°55' E 152°25'9 9.1
2016-Jun-03 21:33S 33°04' E 152°20'9 9.1
2016-Jun-03 20:33S 33°12' E 152°16'18710.7
2016-Jun-03 03:04S 36°05' E 150°50'712.6
2016-Jun-03 02:33S 36°11' E 150°46'1212.6
2016-Jun-03 01:33S 36°23' E 150°41'1312.6
2016-Jun-03 00:33S 36°34' E 150°35'1312.9
2016-Jun-02 23:33S 36°46' E 150°28'1312.7
2016-Jun-02 22:33S 36°58' E 150°23'1313.4
2016-Jun-02 21:33S 37°10' E 150°16'1313.1
2016-Jun-02 20:33S 37°22' E 150°10'1313.0
2016-Jun-02 19:33S 37°34' E 150°02'1313.2
2016-Jun-02 18:33S 37°44' E 149°51'1313.0
2016-Jun-02 17:33S 37°53' E 149°40'1312.8
2016-Jun-02 16:33S 38°03' E 149°30'1313.0
2016-Jun-02 15:33S 38°13' E 149°18'1413.0
2016-Jun-02 14:31S 38°23' E 149°07'7612.7
2016-Jun-02 08:31S 39°20' E 148°02'2311.9
2016-Jun-02 06:33S 39°37' E 147°42'7812.9
2016-Jun-02 00:33S 40°45' E 146°53'1413.0
2016-Jun-01 23:27S 40°58' E 146°45'  
2016-May-30 03:29S 41°08' E 146°51'0 0.0
2016-May-30 02:29S 41°08' E 146°51'0 0.0
2016-May-30 00:25S 41°08' E 146°51'0 0.0
2016-May-29 23:28S 41°08' E 146°51'0 0.0
2016-May-29 22:28S 41°08' E 146°51'0 0.0
2016-May-29 21:32S 41°08' E 146°51'0 0.0
2016-May-29 20:31S 41°08' E 146°51'1 0.5
2016-May-29 19:33S 41°09' E 146°51'1110.5
2016-May-29 18:33S 40°60' E 146°44'7 7.2
2016-May-29 17:33S 40°54' E 146°38'1 1.5
2016-May-29 16:33S 40°54' E 146°39'1 1.3
2016-May-29 15:27S 40°54' E 146°41'1 1.2
2016-May-29 14:33S 40°54' E 146°42'1 0.8
2016-May-29 13:33S 40°54' E 146°43'1 0.9
2016-May-29 12:33S 40°54' E 146°45'8 7.5
2016-May-29 11:33S 40°48' E 146°50'1010.0
2016-May-29 10:33S 40°39' E 146°57'7111.3
2016-May-29 04:15S 39°37' E 147°42'10710.0
2016-May-28 17:33S 38°17' E 149°14'8 8.4
2016-May-28 16:33S 38°11' E 149°21'9 8.7
2016-May-28 15:33S 38°05' E 149°28'9 8.6
2016-May-28 14:34S 37°58' E 149°35'9 8.7
2016-May-28 13:34S 37°52' E 149°42'9 9.3
2016-May-28 12:34S 37°45' E 149°50'10 9.7
2016-May-28 11:33S 37°37' E 149°58'9 9.4
2016-May-28 10:33S 37°30' E 150°06'1010.0
2016-May-28 09:33S 37°20' E 150°08'10 9.7
2016-May-28 08:33S 37°11' E 150°10'9 9.4
2016-May-28 07:33S 37°01' E 150°13'10 9.8
2016-May-28 06:33S 36°52' E 150°15'1010.0
2016-May-28 05:33S 36°42' E 150°17'1010.2
2016-May-28 04:33S 36°32' E 150°20'1010.1
2016-May-28 03:33S 36°22' E 150°22'9 9.4
2016-May-28 02:33S 36°13' E 150°25'202 9.6
2016-May-27 05:26S 33°06' E 151°56'9 9.8
2016-May-27 04:33S 32°60' E 152°03'1110.8
2016-May-27 03:33S 32°52' E 152°12'  

Dump ship's entire track history